createdAt,value
2019-05-25T00:00:41.043Z,98284.24
2019-05-25T00:03:11.327Z,98282.87
2019-05-25T00:05:41.590Z,98285.37
2019-05-25T00:08:11.975Z,98292.47
2019-05-25T00:10:42.251Z,98288.91
2019-05-25T00:13:12.819Z,98284.55
2019-05-25T00:15:43.179Z,98289.09
2019-05-25T00:18:13.816Z,98289.56
2019-05-25T00:20:44.100Z,98292.92
2019-05-25T00:23:14.567Z,98293.06
2019-05-25T00:25:44.885Z,98301.94
2019-05-25T00:28:15.106Z,98293.83
2019-05-25T00:30:45.503Z,98298.66
2019-05-25T00:33:15.874Z,98297.08
2019-05-25T00:35:46.218Z,98292.31
2019-05-25T00:38:17.949Z,98290.59
2019-05-25T00:40:49.214Z,98296.48
2019-05-25T00:43:20.739Z,98297.83
2019-05-25T00:45:51.040Z,98294.95
2019-05-25T00:48:21.258Z,98298.98
2019-05-25T00:50:51.889Z,98301.54
2019-05-25T00:53:22.217Z,98296.59
2019-05-25T00:55:52.748Z,98294.88
2019-05-25T00:58:22.979Z,98294.05
2019-05-25T01:00:53.247Z,98294.73
2019-05-25T01:03:23.512Z,98293.61
2019-05-25T01:05:53.781Z,98288.56
2019-05-25T01:08:24.787Z,98291.29
2019-05-25T01:10:55.150Z,98289.30
2019-05-25T01:13:25.433Z,98292.50
2019-05-25T01:15:55.755Z,98291.89
2019-05-25T01:18:26.386Z,98293.59
2019-05-25T01:20:56.659Z,98297.82
2019-05-25T01:23:26.934Z,98295.97
2019-05-25T01:25:57.197Z,98297.50
2019-05-25T01:28:27.491Z,98294.33
2019-05-25T01:30:57.685Z,98294.16
2019-05-25T01:33:28.041Z,98292.98
2019-05-25T01:35:58.736Z,98293.45
2019-05-25T01:38:28.983Z,98293.70
2019-05-25T01:40:59.761Z,98299.59
2019-05-25T01:43:30.048Z,98299.05
2019-05-25T01:46:00.307Z,98294.13
2019-05-25T01:48:30.903Z,98295.24
2019-05-25T01:51:01.159Z,98294.22
2019-05-25T01:53:32.781Z,98293.67
2019-05-25T01:56:03.051Z,98297.89
2019-05-25T01:58:33.279Z,98300.63
2019-05-25T02:01:03.487Z,98299.93
2019-05-25T02:03:33.903Z,98302.37
2019-05-25T02:06:04.514Z,98303.36
2019-05-25T02:08:34.837Z,98308.52
2019-05-25T02:11:05.109Z,98305.27
2019-05-25T02:13:35.378Z,98297.52
2019-05-25T02:19:36.748Z,98298.30
2019-05-25T02:22:07.073Z,98305.20
2019-05-25T02:24:37.288Z,98310.02
2019-05-25T02:27:07.557Z,98308.53
2019-05-25T02:29:37.846Z,98307.84
2019-05-25T02:32:08.478Z,98307.52
2019-05-25T02:34:38.915Z,98300.14
2019-05-25T02:37:10.532Z,98310.57
2019-05-25T02:39:40.849Z,98311.22
2019-05-25T02:42:11.412Z,98310.91
2019-05-25T02:44:41.707Z,98309.36
2019-05-25T02:47:11.898Z,98308.80
2019-05-25T02:49:42.265Z,98307.08
2019-05-25T02:52:12.813Z,98313.92
2019-05-25T02:54:43.454Z,98309.37
2019-05-25T02:57:13.769Z,98310.66
2019-05-25T02:59:44.087Z,98304.25
2019-05-25T03:02:14.289Z,98309.44
2019-05-25T03:04:44.663Z,98309.58
2019-05-25T03:07:15.479Z,98309.58
2019-05-25T03:09:47.714Z,98312.91
2019-05-25T03:12:18.817Z,98318.98
2019-05-25T03:14:49.426Z,98319.95
2019-05-25T03:17:19.717Z,98313.54
2019-05-25T03:19:50.278Z,98313.99
2019-05-25T03:22:20.573Z,98316.29
2019-05-25T03:24:50.832Z,98312.88
2019-05-25T03:27:21.221Z,98317.69
2019-05-25T03:29:51.892Z,98318.45
2019-05-25T03:32:22.215Z,98320.20
2019-05-25T03:34:52.577Z,98328.71
2019-05-25T03:37:23.204Z,98326.20
2019-05-25T03:39:53.447Z,98328.52
2019-05-25T03:42:24.023Z,98323.78
2019-05-25T03:44:54.212Z,98335.73
2019-05-25T03:47:24.467Z,98329.96
2019-05-25T03:49:55.228Z,98329.90
2019-05-25T03:52:25.939Z,98330.41
2019-05-25T03:54:56.152Z,98334.40
2019-05-25T03:57:26.474Z,98332.99
2019-05-25T03:59:56.740Z,98341.15
2019-05-25T04:02:27.029Z,98340.74
2019-05-25T04:04:57.283Z,98344.53
2019-05-25T04:07:27.579Z,98344.63
2019-05-25T04:09:57.947Z,98346.87
2019-05-25T04:12:29.166Z,98344.78
2019-05-25T04:14:59.513Z,98348.20
2019-05-25T04:17:29.829Z,98356.27
2019-05-25T04:20:00.022Z,98350.16
2019-05-25T04:22:30.354Z,98353.14
2019-05-25T04:25:00.624Z,98354.50
2019-05-25T04:27:30.884Z,98355.64
2019-05-25T04:30:01.350Z,98348.69
2019-05-25T04:32:31.794Z,98352.85
2019-05-25T04:35:02.055Z,98356.84
2019-05-25T04:37:32.298Z,98358.20
2019-05-25T04:40:02.579Z,98359.58
2019-05-25T04:42:32.833Z,98360.94
2019-05-25T04:45:03.110Z,98359.78
2019-05-25T04:47:33.401Z,98362.84
2019-05-25T04:50:03.647Z,98363.57
2019-05-25T04:52:33.929Z,98371.36
2019-05-25T04:55:04.585Z,98364.31
2019-05-25T04:57:34.930Z,98368.75
2019-05-25T05:00:06.895Z,98365.91
2019-05-25T05:02:37.181Z,98366.64
2019-05-25T05:05:07.748Z,98369.19
2019-05-25T05:07:38.355Z,98368.58
2019-05-25T05:10:09.217Z,98369.59
2019-05-25T05:12:39.701Z,98373.49
2019-05-25T05:15:10.180Z,98373.70
2019-05-25T05:17:40.761Z,98376.00
2019-05-25T05:20:11.331Z,98381.39
2019-05-25T05:22:42.241Z,98383.16
2019-05-25T05:25:12.983Z,98378.81
2019-05-25T05:27:43.332Z,98384.85
2019-05-25T05:30:14.050Z,98390.60
2019-05-25T05:32:44.538Z,98389.62
2019-05-25T05:35:14.839Z,98385.73
2019-05-25T05:37:46.417Z,98386.73
2019-05-25T05:40:16.823Z,98383.05
2019-05-25T05:42:49.627Z,98384.90
2019-05-25T05:45:19.931Z,98388.44
2019-05-25T05:47:52.452Z,98395.72
2019-05-25T05:50:22.812Z,98393.03
2019-05-25T05:52:54.826Z,98395.42
2019-05-25T05:55:31.983Z,98395.44
2019-05-25T05:58:02.616Z,98395.63
2019-05-25T06:00:34.189Z,98405.26
2019-05-25T06:03:04.741Z,98401.23
2019-05-25T06:05:35.001Z,98397.28
2019-05-25T06:08:05.279Z,98401.80
2019-05-25T06:10:35.559Z,98404.28
2019-05-25T06:13:05.842Z,98402.00
2019-05-25T06:15:36.105Z,98405.91
2019-05-25T06:18:06.409Z,98408.03
2019-05-25T06:20:36.900Z,98403.82
2019-05-25T06:23:11.680Z,98409.08
2019-05-25T06:25:39.438Z,98406.11
2019-05-25T06:28:09.713Z,98406.34
2019-05-25T06:30:39.993Z,98408.25
2019-05-25T06:33:10.280Z,98408.11
2019-05-25T06:35:40.602Z,98405.75
2019-05-25T06:38:11.949Z,98412.69
2019-05-25T06:40:43.583Z,98407.13
2019-05-25T06:43:14.247Z,98417.43
2019-05-25T06:45:44.776Z,98410.33
2019-05-25T06:48:15.098Z,98409.64
2019-05-25T06:50:45.487Z,98410.33
2019-05-25T06:53:16.059Z,98418.41
2019-05-25T06:55:46.510Z,98407.63
2019-05-25T06:58:16.831Z,98411.00
2019-05-25T07:00:47.123Z,98409.98
2019-05-25T07:03:17.440Z,98409.64
2019-05-25T07:05:47.755Z,98411.16
2019-05-25T07:08:18.009Z,98415.05
2019-05-25T07:10:48.686Z,98415.71
2019-05-25T07:13:19.040Z,98425.33
2019-05-25T07:15:49.902Z,98425.00
2019-05-25T07:18:20.851Z,98426.52
2019-05-25T07:20:51.815Z,98430.91
2019-05-25T07:23:22.035Z,98430.72
2019-05-25T07:25:52.253Z,98435.80
2019-05-25T07:28:22.547Z,98431.23
2019-05-25T07:30:52.751Z,98430.17
2019-05-25T07:33:23.524Z,98435.58
2019-05-25T07:35:53.730Z,98430.80
2019-05-25T07:38:24.088Z,98439.55
2019-05-25T07:40:54.306Z,98447.27
2019-05-25T07:43:25.640Z,98449.45
2019-05-25T07:45:56.283Z,98439.81
2019-05-25T07:48:26.851Z,98447.17
2019-05-25T07:50:57.573Z,98445.90
2019-05-25T07:53:28.178Z,98440.33
2019-05-25T07:55:58.480Z,98440.22
2019-05-25T07:58:29.152Z,98433.09
2019-05-25T08:00:59.422Z,98440.44
2019-05-25T08:03:29.655Z,98438.20
2019-05-25T08:06:00.281Z,98438.13
2019-05-25T08:08:30.549Z,98437.14
2019-05-25T08:11:00.907Z,98439.20
2019-05-25T08:13:31.735Z,98444.03
2019-05-25T08:16:02.004Z,98442.06
2019-05-25T08:18:32.253Z,98441.84
2019-05-25T08:21:02.591Z,98443.50
2019-05-25T08:23:32.797Z,98439.70
2019-05-25T08:26:03.079Z,98436.38
2019-05-25T08:28:36.416Z,98431.91
2019-05-25T08:31:06.702Z,98432.31
2019-05-25T08:33:37.433Z,98438.84
2019-05-25T08:36:07.757Z,98438.05
2019-05-25T08:38:37.976Z,98432.63
2019-05-25T08:41:08.305Z,98440.29
2019-05-25T08:43:38.839Z,98441.12
2019-05-25T08:46:09.080Z,98437.56
2019-05-25T08:48:40.008Z,98435.67
2019-05-25T08:51:10.403Z,98437.22
2019-05-25T08:53:42.392Z,98432.77
2019-05-25T08:56:13.005Z,98435.66
2019-05-25T08:58:48.521Z,98434.48
2019-05-25T09:01:15.863Z,98439.72
2019-05-25T09:03:46.204Z,98436.75
2019-05-25T09:06:17.185Z,98434.02
2019-05-25T09:08:47.785Z,98443.31
2019-05-25T09:11:18.112Z,98440.61
2019-05-25T09:13:48.543Z,98439.42
2019-05-25T09:16:19.409Z,98438.20
2019-05-25T09:18:49.728Z,98439.27
2019-05-25T09:21:19.925Z,98439.17
2019-05-25T09:23:50.487Z,98434.14
2019-05-25T09:26:21.177Z,98438.00
2019-05-25T09:29:04.085Z,98441.30
2019-05-25T09:31:24.434Z,98442.30
2019-05-25T09:33:54.843Z,98437.84
2019-05-25T09:36:25.872Z,98438.94
2019-05-25T09:38:56.494Z,98432.99
2019-05-25T09:41:26.830Z,98435.14
2019-05-25T09:43:57.995Z,98435.31
2019-05-25T09:46:28.300Z,98434.52
2019-05-25T09:48:58.584Z,98436.41
2019-05-25T09:51:28.827Z,98433.88
2019-05-25T09:53:59.130Z,98429.09
2019-05-25T09:56:29.573Z,98426.89
2019-05-25T09:59:00.153Z,98420.03
2019-05-25T10:01:30.876Z,98426.74
2019-05-25T10:04:01.457Z,98425.87
2019-05-25T10:06:32.042Z,98424.14
2019-05-25T10:09:02.350Z,98417.64
2019-05-25T10:11:32.655Z,98417.17
2019-05-25T10:14:02.906Z,98412.02
2019-05-25T10:16:33.548Z,98410.51
2019-05-25T10:19:03.858Z,98406.84
2019-05-25T10:21:34.322Z,98400.91
2019-05-25T10:24:04.648Z,98400.97
2019-05-25T10:26:35.075Z,98406.56
2019-05-25T10:29:07.593Z,98399.69
2019-05-25T10:31:38.554Z,98391.73
2019-05-25T10:34:10.656Z,98396.38
2019-05-25T10:36:41.874Z,98394.17
2019-05-25T10:39:12.500Z,98388.17
2019-05-25T10:41:43.337Z,98385.05
2019-05-25T10:44:15.452Z,98380.56
2019-05-25T10:46:45.727Z,98383.66
2019-05-25T10:49:16.422Z,98377.39
2019-05-25T10:51:47.218Z,98373.66
2019-05-25T10:54:17.655Z,98386.63
2019-05-25T10:56:47.905Z,98378.95
2019-05-25T10:59:18.288Z,98377.87
2019-05-25T11:01:48.963Z,98375.38
2019-05-25T11:04:19.217Z,98373.03
2019-05-25T11:06:49.565Z,98372.91
2019-05-25T11:09:19.797Z,98369.09
2019-05-25T11:11:50.125Z,98371.58
2019-05-25T11:14:20.424Z,98368.30
2019-05-25T11:16:50.746Z,98365.81
2019-05-25T11:19:24.016Z,98371.59
2019-05-25T11:21:53.032Z,98361.41
2019-05-25T11:24:23.266Z,98359.55
2019-05-25T11:26:53.563Z,98359.89
2019-05-25T11:29:25.250Z,98361.52
2019-05-25T11:32:00.033Z,98363.64
2019-05-25T11:34:27.430Z,98358.06
2019-05-25T11:36:57.740Z,98353.52
2019-05-25T11:39:27.981Z,98349.17
2019-05-25T11:41:58.274Z,98349.42
2019-05-25T11:44:28.514Z,98344.69
2019-05-25T11:46:59.002Z,98336.90
2019-05-25T11:49:29.525Z,98343.39
2019-05-25T11:51:59.902Z,98343.66
2019-05-25T11:54:30.131Z,98354.27
2019-05-25T11:57:00.898Z,98358.43
2019-05-25T11:59:31.144Z,98355.73
2019-05-25T12:02:02.421Z,98370.47
2019-05-25T12:04:32.993Z,98357.00
2019-05-25T12:07:03.615Z,98380.53
2019-05-25T12:09:33.903Z,98371.97
2019-05-25T12:12:04.463Z,98373.34
2019-05-25T12:14:35.098Z,98379.28
2019-05-25T12:17:05.506Z,98377.20
2019-05-25T12:19:35.742Z,98378.82
2019-05-25T12:22:06.039Z,98369.72
2019-05-25T12:24:36.704Z,98370.41
2019-05-25T12:27:07.092Z,98373.08
2019-05-25T12:29:37.379Z,98366.28
2019-05-25T12:32:07.734Z,98373.72
2019-05-25T12:34:38.310Z,98371.34
2019-05-25T12:37:08.600Z,98369.05
2019-05-25T12:39:40.409Z,98370.95
2019-05-25T12:42:11.182Z,98370.59
2019-05-25T12:44:41.743Z,98367.25
2019-05-25T12:47:12.075Z,98368.48
2019-05-25T12:49:50.538Z,98372.00
2019-05-25T12:52:15.454Z,98368.03
2019-05-25T12:54:45.783Z,98369.06
2019-05-25T12:57:16.061Z,98375.77
2019-05-25T12:59:46.301Z,98367.80
2019-05-25T13:02:16.577Z,98365.06
2019-05-25T13:04:46.885Z,98372.23
2019-05-25T13:07:18.156Z,98361.89
2019-05-25T13:09:48.480Z,98361.70
2019-05-25T13:12:18.789Z,98362.29
2019-05-25T13:14:49.087Z,98362.39
2019-05-25T13:17:19.341Z,98359.45
2019-05-25T13:19:50.715Z,98354.48
2019-05-25T13:22:21.005Z,98354.98
2019-05-25T13:24:51.266Z,98355.63
2019-05-25T13:27:21.561Z,98355.43
2019-05-25T13:29:51.757Z,98364.16
2019-05-25T13:32:22.029Z,98367.47
2019-05-25T13:34:52.323Z,98372.34
2019-05-25T13:37:22.574Z,98376.59
2019-05-25T13:39:53.125Z,98366.39
2019-05-25T13:42:23.332Z,98367.77
2019-05-25T13:44:53.704Z,98368.94
2019-05-25T13:47:23.980Z,98374.48
2019-05-25T13:49:54.184Z,98382.34
2019-05-25T13:52:24.423Z,98384.34
2019-05-25T13:54:54.692Z,98386.16
2019-05-25T13:57:24.981Z,98393.58
2019-05-25T13:59:55.636Z,98387.17
2019-05-25T14:02:25.919Z,98373.72
2019-05-25T14:04:56.339Z,98380.27
2019-05-25T14:07:26.582Z,98380.27
2019-05-25T14:09:57.177Z,98378.81
2019-05-25T14:12:27.851Z,98379.77
2019-05-25T14:14:58.103Z,98385.49
2019-05-25T14:17:28.384Z,98384.73
2019-05-25T14:19:58.658Z,98397.06
2019-05-25T14:22:28.942Z,98379.51
2019-05-25T14:24:59.186Z,98382.52
2019-05-25T14:27:29.496Z,98376.55
2019-05-25T14:29:59.756Z,98363.88
2019-05-25T14:32:30.053Z,98362.75
2019-05-25T14:35:00.658Z,98357.05
2019-05-25T14:37:30.915Z,98366.45
2019-05-25T14:40:01.198Z,98369.94
2019-05-25T14:42:31.382Z,98371.84
2019-05-25T14:45:01.940Z,98363.31
2019-05-25T14:47:32.213Z,98357.48
2019-05-25T14:50:02.501Z,98359.91
2019-05-25T14:52:32.865Z,98354.35
2019-05-25T14:55:03.181Z,98356.08
2019-05-25T14:57:33.414Z,98362.05
2019-05-25T15:00:03.705Z,98359.94
2019-05-25T15:02:33.960Z,98362.58
2019-05-25T15:05:04.402Z,98360.23
2019-05-25T15:07:34.590Z,98361.61
2019-05-25T15:10:05.361Z,98364.03
2019-05-25T15:12:36.773Z,98364.98
2019-05-25T15:15:07.893Z,98358.33
2019-05-25T15:17:38.173Z,98356.02
2019-05-25T15:20:10.788Z,98360.25
2019-05-25T15:22:41.079Z,98358.02
2019-05-25T15:25:12.197Z,98359.59
2019-05-25T15:27:42.535Z,98357.81
2019-05-25T15:30:13.219Z,98370.41
2019-05-25T15:32:43.433Z,98370.36
2019-05-25T15:35:14.195Z,98366.64
2019-05-25T15:37:44.527Z,98371.96
2019-05-25T15:40:15.412Z,98375.28
2019-05-25T15:42:45.733Z,98378.00
2019-05-25T15:47:45.130Z,98371.89
2019-05-25T15:50:17.435Z,98375.81
2019-05-25T15:52:47.821Z,98371.16
2019-05-25T15:55:18.216Z,98385.44
2019-05-25T15:57:48.801Z,98387.13
2019-05-25T16:00:19.797Z,98389.69
2019-05-25T16:02:50.178Z,98394.12
2019-05-25T16:05:20.858Z,98400.77
2019-05-25T16:07:52.523Z,98403.94
2019-05-25T16:10:22.838Z,98410.08
2019-05-25T16:12:53.216Z,98418.08
2019-05-25T16:15:29.656Z,98419.30
2019-05-25T16:18:00.305Z,98425.00
2019-05-25T16:20:30.892Z,98428.61
2019-05-25T16:23:01.238Z,98433.26
2019-05-25T16:25:31.860Z,98443.53
2019-05-25T16:28:02.117Z,98447.74
2019-05-25T16:30:32.315Z,98453.66
2019-05-25T16:33:13.148Z,98456.69
2019-05-25T16:35:34.880Z,98464.89
2019-05-25T16:38:05.388Z,98474.78
2019-05-25T16:40:35.846Z,98476.44
2019-05-25T16:43:06.105Z,98477.75
2019-05-25T16:45:36.390Z,98483.48
2019-05-25T16:48:06.659Z,98487.31
2019-05-25T16:50:37.248Z,98493.59
2019-05-25T16:53:07.518Z,98487.47
2019-05-25T16:55:38.111Z,98496.55
2019-05-25T16:58:08.385Z,98495.14
2019-05-25T17:00:38.830Z,98490.72
2019-05-25T17:03:09.018Z,98499.30
2019-05-25T17:05:39.309Z,98491.20
2019-05-25T17:08:09.562Z,98489.06
2019-05-25T17:10:39.967Z,98489.61
2019-05-25T17:13:10.207Z,98486.84
2019-05-25T17:15:40.494Z,98477.58
2019-05-25T17:18:10.904Z,98482.44
2019-05-25T17:20:41.260Z,98479.12
2019-05-25T17:23:11.981Z,98491.35
2019-05-25T17:25:42.201Z,98492.55
2019-05-25T17:28:12.746Z,98497.22
2019-05-25T17:30:45.352Z,98498.88
2019-05-25T17:33:15.719Z,98500.83
2019-05-25T17:35:46.881Z,98506.80
2019-05-25T17:38:17.183Z,98510.30
2019-05-25T17:40:47.962Z,98510.61
2019-05-25T17:43:18.776Z,98509.67
2019-05-25T17:45:49.347Z,98510.77
2019-05-25T17:48:20.295Z,98515.06
2019-05-25T17:50:50.575Z,98517.39
2019-05-25T17:53:21.398Z,98511.02
2019-05-25T17:55:51.906Z,98518.33
2019-05-25T17:58:22.200Z,98521.27
2019-05-25T18:00:52.418Z,98531.15
2019-05-25T18:03:22.739Z,98529.94
2019-05-25T18:05:53.020Z,98533.94
2019-05-25T18:08:23.548Z,98526.27
2019-05-25T18:10:54.671Z,98532.63
2019-05-25T18:13:28.748Z,98531.72
2019-05-25T18:15:57.505Z,98537.87
2019-05-25T18:18:28.146Z,98542.50
2019-05-25T18:20:58.509Z,98539.80
2019-05-25T18:23:29.403Z,98536.25
2019-05-25T18:25:59.799Z,98543.02
2019-05-25T18:28:30.098Z,98542.16
2019-05-25T18:31:00.483Z,98541.48
2019-05-25T18:33:31.519Z,98547.20
2019-05-25T18:36:02.087Z,98544.60
2019-05-25T18:38:32.339Z,98547.66
2019-05-25T18:41:02.523Z,98539.85
2019-05-25T18:43:32.816Z,98536.16
2019-05-25T18:46:03.827Z,98531.45
2019-05-25T18:48:34.543Z,98530.56
2019-05-25T18:51:05.937Z,98531.58
2019-05-25T18:53:36.211Z,98536.83
2019-05-25T18:56:07.225Z,98536.83
2019-05-25T18:58:37.487Z,98541.53
2019-05-25T19:01:08.170Z,98543.55
2019-05-25T19:03:38.377Z,98545.23
2019-05-25T19:06:08.643Z,98551.45
2019-05-25T19:08:38.961Z,98547.73
2019-05-25T19:11:10.318Z,98553.97
2019-05-25T19:13:40.613Z,98551.75
2019-05-25T19:16:11.240Z,98555.98
2019-05-25T19:18:41.478Z,98563.06
2019-05-25T19:21:12.002Z,98554.42
2019-05-25T19:23:42.848Z,98557.64
2019-05-25T19:26:13.094Z,98559.47
2019-05-25T19:28:44.798Z,98556.89
2019-05-25T19:31:15.184Z,98569.02
2019-05-25T19:33:45.525Z,98570.16
2019-05-25T19:36:15.724Z,98566.59
2019-05-25T19:38:46.645Z,98572.12
2019-05-25T19:41:17.258Z,98572.30
2019-05-25T19:43:47.506Z,98587.64
2019-05-25T19:46:18.938Z,98590.48
2019-05-25T19:48:49.317Z,98588.95
2019-05-25T19:51:20.263Z,98588.59
2019-05-25T19:53:50.522Z,98585.42
2019-05-25T19:56:20.800Z,98588.16
2019-05-25T19:58:51.068Z,98598.94
2019-05-25T20:01:22.107Z,98602.33
2019-05-25T20:03:52.425Z,98604.19
2019-05-25T20:06:23.064Z,98611.08
2019-05-25T20:08:53.287Z,98614.93
2019-05-25T20:11:23.542Z,98625.72
2019-05-25T20:13:53.843Z,98619.96
2019-05-25T20:16:25.105Z,98626.19
2019-05-25T20:18:56.076Z,98622.47
2019-05-25T20:21:26.283Z,98624.66
2019-05-25T20:23:56.563Z,98632.88
2019-05-25T20:26:27.090Z,98631.20
2019-05-25T20:28:57.310Z,98632.88
2019-05-25T20:31:28.323Z,98635.11
2019-05-25T20:33:58.578Z,98634.92
2019-05-25T20:36:28.914Z,98633.20
2019-05-25T20:38:59.850Z,98635.52
2019-05-25T20:41:30.141Z,98641.23
2019-05-25T20:44:00.386Z,98635.38
2019-05-25T20:46:30.753Z,98637.70
2019-05-25T20:49:01.456Z,98638.52
2019-05-25T20:51:32.106Z,98637.97
2019-05-25T20:54:02.434Z,98640.97
2019-05-25T20:56:32.662Z,98637.76
2019-05-25T20:59:02.952Z,98637.76
2019-05-25T21:01:33.671Z,98635.72
2019-05-25T21:04:04.005Z,98636.11
2019-05-25T21:06:34.605Z,98637.97
2019-05-25T21:09:06.455Z,98641.55
2019-05-25T21:11:36.666Z,98637.31
2019-05-25T21:14:06.942Z,98630.53
2019-05-25T21:16:37.271Z,98629.58
2019-05-25T21:19:07.811Z,98631.67
2019-05-25T21:21:38.037Z,98635.44
2019-05-25T21:24:09.374Z,98639.55
2019-05-25T21:26:40.013Z,98640.39
2019-05-25T21:29:10.333Z,98641.40
2019-05-25T21:31:40.592Z,98643.78
2019-05-25T21:34:11.190Z,98643.04
2019-05-25T21:36:43.304Z,98642.70
2019-05-25T21:39:13.346Z,98637.13
2019-05-25T21:41:44.236Z,98636.11
2019-05-25T21:44:14.548Z,98639.63
2019-05-25T21:46:44.842Z,98639.16
2019-05-25T21:49:15.115Z,98634.27
2019-05-25T21:51:45.388Z,98636.85
2019-05-25T21:54:16.042Z,98637.16
2019-05-25T21:56:46.308Z,98638.42
2019-05-25T21:59:16.601Z,98640.12
2019-05-25T22:01:47.054Z,98647.30
2019-05-25T22:04:17.656Z,98639.59
2019-05-25T22:06:48.399Z,98645.30
2019-05-25T22:09:19.018Z,98645.16
2019-05-25T22:11:49.358Z,98645.28
2019-05-25T22:14:19.665Z,98650.13
2019-05-25T22:16:50.018Z,98653.74
2019-05-25T22:19:20.316Z,98662.72
2019-05-25T22:21:51.013Z,98667.97
2019-05-25T22:24:21.228Z,98664.36
2019-05-25T22:26:51.430Z,98665.58
2019-05-25T22:29:21.710Z,98657.86
2019-05-25T22:31:52.519Z,98656.31
2019-05-25T22:34:22.883Z,98658.52
2019-05-25T22:36:53.429Z,98660.16
2019-05-25T22:39:23.701Z,98662.67
2019-05-25T22:41:53.946Z,98664.44
2019-05-25T22:44:24.303Z,98666.45
2019-05-25T22:46:54.536Z,98663.05
2019-05-25T22:49:24.763Z,98666.03
2019-05-25T22:51:55.356Z,98660.81
2019-05-25T22:54:25.881Z,98662.84
2019-05-25T22:56:56.337Z,98655.75
2019-05-25T22:59:26.571Z,98655.62
2019-05-25T23:01:56.843Z,98657.09
2019-05-25T23:04:27.484Z,98650.79
2019-05-25T23:06:58.675Z,98646.97
2019-05-25T23:09:29.003Z,98644.77
2019-05-25T23:12:00.191Z,98644.25
2019-05-25T23:14:30.727Z,98650.61
2019-05-25T23:17:00.999Z,98652.73
2019-05-25T23:19:31.320Z,98650.42
2019-05-25T23:22:01.594Z,98651.05
2019-05-25T23:24:32.238Z,98651.33
2019-05-25T23:27:03.389Z,98651.24
2019-05-25T23:29:33.651Z,98653.49
2019-05-25T23:32:04.028Z,98659.77
2019-05-25T23:34:34.337Z,98663.45
2019-05-25T23:37:14.739Z,98660.14
2019-05-25T23:39:37.735Z,98666.19
2019-05-25T23:42:08.007Z,98664.79
2019-05-25T23:44:38.259Z,98668.81
2019-05-25T23:47:08.533Z,98666.04
2019-05-25T23:49:39.774Z,98673.75
2019-05-25T23:52:09.996Z,98669.63
2019-05-25T23:54:40.269Z,98668.41
2019-05-25T23:57:10.547Z,98668.41
2019-05-25T23:59:40.845Z,98668.31
